createdAt,value
2023-02-14T00:00:49.895Z,3.04
2023-02-14T00:03:17.862Z,3.01
2023-02-14T00:05:44.781Z,2.96
2023-02-14T00:08:11.390Z,2.93
2023-02-14T00:10:39.058Z,2.89
2023-02-14T00:13:05.950Z,2.86
2023-02-14T00:15:35.578Z,2.82
2023-02-14T00:18:04.227Z,2.81
2023-02-14T00:20:30.645Z,2.77
2023-02-14T00:22:57.473Z,2.76
2023-02-14T00:25:26.450Z,2.72
2023-02-14T00:27:54.395Z,2.67
2023-02-14T00:30:21.009Z,2.62
2023-02-14T00:32:47.778Z,2.55
2023-02-14T00:35:15.172Z,2.51
2023-02-14T00:37:41.672Z,2.49
2023-02-14T00:40:09.085Z,2.43
2023-02-14T00:42:35.601Z,2.36
2023-02-14T00:45:02.190Z,2.32
2023-02-14T00:47:28.710Z,2.31
2023-02-14T00:49:59.330Z,2.31
2023-02-14T00:52:25.677Z,2.31
2023-02-14T00:54:52.096Z,2.26
2023-02-14T00:57:18.518Z,2.23
2023-02-14T00:59:45.078Z,2.20
2023-02-14T01:02:11.670Z,2.19
2023-02-14T01:04:38.139Z,2.15
2023-02-14T01:07:06.080Z,2.13
2023-02-14T01:09:32.643Z,2.05
2023-02-14T01:12:01.862Z,2.00
2023-02-14T01:14:30.678Z,1.96
2023-02-14T01:16:57.141Z,1.91
2023-02-14T01:19:26.079Z,1.91
2023-02-14T01:21:52.595Z,1.94
2023-02-14T01:24:22.854Z,1.92
2023-02-14T01:26:49.365Z,1.94
2023-02-14T01:29:15.882Z,1.90
2023-02-14T01:31:44.931Z,1.81
2023-02-14T01:34:11.744Z,1.80
2023-02-14T01:36:39.783Z,1.81
2023-02-14T01:39:15.369Z,1.81
2023-02-14T01:41:48.516Z,1.77
2023-02-14T01:44:16.120Z,1.73
2023-02-14T01:46:44.546Z,1.65
2023-02-14T01:49:28.203Z,1.60
2023-02-14T01:52:10.935Z,1.60
2023-02-14T01:54:43.669Z,1.63
2023-02-14T01:57:14.506Z,1.65
2023-02-14T01:59:48.143Z,1.67
2023-02-14T02:02:15.989Z,1.65
2023-02-14T02:04:46.927Z,1.64
2023-02-14T02:07:23.262Z,1.60
2023-02-14T02:09:58.120Z,1.56
2023-02-14T02:12:24.842Z,1.57
2023-02-14T02:14:54.726Z,1.58
2023-02-14T02:17:36.926Z,1.52
2023-02-14T02:20:36.432Z,1.43
2023-02-14T02:23:57.166Z,1.41
2023-02-14T02:26:45.759Z,1.41
2023-02-14T02:29:46.413Z,1.36
2023-02-14T02:32:16.738Z,1.35
2023-02-14T02:35:09.313Z,1.37
2023-02-14T02:38:04.220Z,1.33
2023-02-14T02:41:09.523Z,1.34
2023-02-14T02:43:54.064Z,1.34
2023-02-14T02:46:47.896Z,1.35
2023-02-14T02:49:51.754Z,1.36
2023-02-14T02:52:46.072Z,1.34
2023-02-14T02:55:56.134Z,1.37
2023-02-14T02:58:29.769Z,1.35
2023-02-14T03:00:59.492Z,1.34
2023-02-14T03:03:48.532Z,1.31
2023-02-14T03:06:15.009Z,1.29
2023-02-14T03:08:43.593Z,1.27
2023-02-14T03:11:13.967Z,1.23
2023-02-14T03:13:51.761Z,1.24
2023-02-14T03:16:39.660Z,1.18
2023-02-14T03:19:11.321Z,1.11
2023-02-14T03:21:46.963Z,1.08
2023-02-14T03:24:31.646Z,1.09
2023-02-14T03:27:15.049Z,1.06
2023-02-14T03:30:01.192Z,1.02
2023-02-14T03:32:45.504Z,1.05
2023-02-14T03:35:20.140Z,1.05
2023-02-14T03:37:57.001Z,1.06
2023-02-14T03:40:49.554Z,1.08
2023-02-14T03:43:22.454Z,1.07
2023-02-14T03:45:55.210Z,1.03
2023-02-14T03:48:24.903Z,1.00
2023-02-14T03:50:52.893Z,0.98
2023-02-14T03:53:24.123Z,0.96
2023-02-14T03:56:13.976Z,0.94
2023-02-14T03:58:45.305Z,0.92
2023-02-14T04:01:23.407Z,0.90
2023-02-14T04:03:56.231Z,0.87
2023-02-14T04:06:22.889Z,0.87
2023-02-14T04:08:49.360Z,0.84
2023-02-14T04:11:16.218Z,0.80
2023-02-14T04:13:44.336Z,0.75
2023-02-14T04:16:10.963Z,0.72
2023-02-14T04:18:56.431Z,0.67
2023-02-14T04:21:23.010Z,0.65
2023-02-14T04:23:49.667Z,0.66
2023-02-14T04:26:16.310Z,0.63
2023-02-14T04:28:42.806Z,0.59
2023-02-14T04:31:11.583Z,0.56
2023-02-14T04:33:39.271Z,0.55
2023-02-14T04:36:14.821Z,0.54
2023-02-14T04:38:41.329Z,0.52
2023-02-14T04:41:07.869Z,0.51
2023-02-14T04:43:35.268Z,0.50
2023-02-14T04:46:01.821Z,0.44
2023-02-14T04:48:28.315Z,0.43
2023-02-14T04:50:55.167Z,0.40
2023-02-14T04:53:21.931Z,0.38
2023-02-14T04:55:49.875Z,0.37
2023-02-14T04:58:16.421Z,0.34
2023-02-14T05:00:42.939Z,0.29
2023-02-14T05:03:10.416Z,0.30
2023-02-14T05:05:36.923Z,0.26
2023-02-14T05:08:03.617Z,0.25
2023-02-14T05:10:30.084Z,0.22
2023-02-14T05:12:56.641Z,0.21
2023-02-14T05:15:23.394Z,0.22
2023-02-14T05:17:49.879Z,0.22
2023-02-14T05:20:18.724Z,0.20
2023-02-14T05:22:45.230Z,0.19
2023-02-14T05:25:11.710Z,0.21
2023-02-14T05:27:38.384Z,0.21
2023-02-14T05:30:05.476Z,0.17
2023-02-14T05:32:32.055Z,0.18
2023-02-14T05:35:00.970Z,0.14
2023-02-14T05:37:27.627Z,0.12
2023-02-14T05:39:54.182Z,0.13
2023-02-14T05:42:20.641Z,0.10
2023-02-14T05:44:48.229Z,0.09
2023-02-14T05:47:14.991Z,0.07
2023-02-14T05:49:41.444Z,0.03
2023-02-14T05:52:08.052Z,-0.01
2023-02-14T05:54:34.701Z,-0.03
2023-02-14T05:57:01.227Z,-0.09
2023-02-14T05:59:32.358Z,-0.11
2023-02-14T06:01:58.939Z,-0.12
2023-02-14T06:04:25.724Z,-0.12
2023-02-14T06:06:52.186Z,-0.15
2023-02-14T06:09:20.192Z,-0.15
2023-02-14T06:11:46.755Z,-0.16
2023-02-14T06:14:14.638Z,-0.17
2023-02-14T06:16:41.199Z,-0.16
2023-02-14T06:19:07.984Z,-0.16
2023-02-14T06:21:34.802Z,-0.14
2023-02-14T06:24:01.501Z,-0.13
2023-02-14T06:26:29.113Z,-0.13
2023-02-14T06:28:56.930Z,-0.15
2023-02-14T06:31:24.380Z,-0.14
2023-02-14T06:33:52.451Z,-0.17
2023-02-14T06:36:19.850Z,-0.17
2023-02-14T06:38:47.956Z,-0.17
2023-02-14T06:41:17.372Z,-0.20
2023-02-14T06:43:44.982Z,-0.21
2023-02-14T06:46:11.776Z,-0.21
2023-02-14T06:48:38.296Z,-0.22
2023-02-14T06:51:04.915Z,-0.20
2023-02-14T06:53:36.724Z,-0.22
2023-02-14T06:56:06.043Z,-0.22
2023-02-14T06:58:32.702Z,-0.23
2023-02-14T07:01:00.179Z,-0.24
2023-02-14T07:03:27.585Z,-0.25
2023-02-14T07:05:55.679Z,-0.25
2023-02-14T07:08:22.256Z,-0.28
2023-02-14T07:10:51.158Z,-0.27
2023-02-14T07:13:18.768Z,-0.26
2023-02-14T07:15:47.111Z,-0.25
2023-02-14T07:18:13.720Z,-0.24
2023-02-14T07:20:40.528Z,-0.19
2023-02-14T07:23:07.028Z,-0.16
2023-02-14T07:25:33.634Z,-0.11
2023-02-14T07:28:00.230Z,-0.07
2023-02-14T07:30:26.748Z,-0.05
2023-02-14T07:32:53.479Z,-0.01
2023-02-14T07:35:22.708Z,0.00
2023-02-14T07:37:52.547Z,0.06
2023-02-14T07:40:23.015Z,0.08
2023-02-14T07:42:58.072Z,0.07
2023-02-14T07:45:25.653Z,0.10
2023-02-14T07:47:54.145Z,0.17
2023-02-14T07:50:23.068Z,0.24
2023-02-14T07:52:51.814Z,0.33
2023-02-14T07:55:22.106Z,0.41
2023-02-14T07:57:49.247Z,0.51
2023-02-14T08:00:16.203Z,0.65
2023-02-14T08:02:42.854Z,0.82
2023-02-14T08:05:09.555Z,1.06
2023-02-14T08:07:36.231Z,1.33
2023-02-14T08:10:02.704Z,1.63
2023-02-14T08:12:48.270Z,1.94
2023-02-14T08:15:33.771Z,2.48
2023-02-14T08:18:00.236Z,3.12
2023-02-14T08:20:26.820Z,3.74
2023-02-14T08:22:53.386Z,4.11
2023-02-14T08:25:20.160Z,4.46
2023-02-14T08:27:49.699Z,5.04
2023-02-14T08:30:16.643Z,5.96
2023-02-14T08:32:43.516Z,6.86
2023-02-14T08:35:10.031Z,7.56
2023-02-14T08:37:36.674Z,8.30
2023-02-14T08:40:03.404Z,8.87
2023-02-14T08:42:30.319Z,9.43
2023-02-14T08:45:16.560Z,9.73
2023-02-14T08:47:48.857Z,10.10
2023-02-14T08:50:17.359Z,10.42
2023-02-14T08:52:44.540Z,10.83
2023-02-14T08:58:21.610Z,11.58
2023-02-14T09:00:48.201Z,11.55
2023-02-14T09:03:14.775Z,11.35
2023-02-14T09:05:41.736Z,11.42
2023-02-14T09:08:08.535Z,11.42
2023-02-14T09:10:47.712Z,11.73
2023-02-14T09:13:15.369Z,12.10
2023-02-14T09:15:41.900Z,12.38
2023-02-14T09:18:16.307Z,12.67
2023-02-14T09:20:45.832Z,12.88
2023-02-14T09:23:12.546Z,13.09
2023-02-14T09:25:39.295Z,13.41
2023-02-14T09:28:59.397Z,13.43
2023-02-14T09:31:59.678Z,13.58
2023-02-14T09:34:46.551Z,13.18
2023-02-14T09:37:33.126Z,13.11
2023-02-14T09:40:00.857Z,13.39
2023-02-14T09:42:45.917Z,13.39
2023-02-14T09:45:25.567Z,13.62
2023-02-14T09:48:06.168Z,13.46
2023-02-14T09:50:47.369Z,13.89
2023-02-14T09:53:49.359Z,14.69
2023-02-14T09:56:42.847Z,15.03
2023-02-14T09:59:25.699Z,15.06
2023-02-14T10:01:59.363Z,14.96
2023-02-14T10:04:39.760Z,14.95
2023-02-14T10:07:35.076Z,15.64
2023-02-14T10:10:08.849Z,15.55
2023-02-14T10:12:46.102Z,15.78
2023-02-14T10:15:41.611Z,16.08
2023-02-14T10:18:24.601Z,16.29
2023-02-14T10:21:05.156Z,16.55
2023-02-14T10:23:47.581Z,16.50
2023-02-14T10:30:13.122Z,17.14
2023-02-14T10:32:46.765Z,17.16
2023-02-14T10:35:22.667Z,17.16
2023-02-14T10:38:40.780Z,17.32
2023-02-14T10:41:24.086Z,17.42
2023-02-14T10:44:14.731Z,17.68
2023-02-14T10:47:02.265Z,18.25
2023-02-14T10:50:11.483Z,18.36
2023-02-14T10:53:01.453Z,18.34
2023-02-14T10:55:54.977Z,18.41
2023-02-14T10:58:28.434Z,18.63
2023-02-14T11:01:03.895Z,18.89
2023-02-14T11:03:32.995Z,18.91
2023-02-14T11:06:01.021Z,19.10
2023-02-14T11:08:33.779Z,19.02
2023-02-14T11:11:13.690Z,19.08
2023-02-14T11:13:40.653Z,19.01
2023-02-14T11:16:31.485Z,19.28
2023-02-14T11:20:16.624Z,19.64
2023-02-14T11:23:48.745Z,19.52
2023-02-14T11:37:43.470Z,18.75
2023-02-14T11:44:23.598Z,19.61
2023-02-14T11:46:55.941Z,19.64
2023-02-14T11:49:57.745Z,20.24
2023-02-14T11:52:28.812Z,19.81
2023-02-14T11:54:58.538Z,19.78
2023-02-14T11:57:52.640Z,19.89
2023-02-14T12:00:30.144Z,20.10
2023-02-14T12:03:20.243Z,20.20
2023-02-14T12:06:06.204Z,19.88
2023-02-14T12:09:19.437Z,19.99
2023-02-14T12:19:54.963Z,20.52
2023-02-14T12:22:34.043Z,20.54
2023-02-14T12:26:17.388Z,20.46
2023-02-14T12:28:54.584Z,19.88
2023-02-14T12:56:51.389Z,16.48
2023-02-14T13:02:24.586Z,15.98
2023-02-14T13:17:36.325Z,15.71
2023-02-14T13:42:34.579Z,14.87
2023-02-14T13:57:27.237Z,14.62
2023-02-14T14:04:35.122Z,14.70
2023-02-14T14:07:30.705Z,14.58
2023-02-14T14:10:36.850Z,14.42
2023-02-14T14:13:03.554Z,14.26
2023-02-14T14:15:31.729Z,14.23
2023-02-14T14:18:13.418Z,14.34
2023-02-14T14:20:42.145Z,14.34
2023-02-14T14:23:37.211Z,14.44
2023-02-14T14:26:23.849Z,14.33
2023-02-14T14:28:50.469Z,14.28
2023-02-14T14:31:20.488Z,14.24
2023-02-14T14:33:47.222Z,14.08
2023-02-14T14:36:23.377Z,14.01
2023-02-14T14:38:54.540Z,13.91
2023-02-14T14:44:15.150Z,13.84
2023-02-14T14:46:42.097Z,13.76
2023-02-14T14:49:11.149Z,13.72
2023-02-14T14:51:43.530Z,13.79
2023-02-14T14:54:12.752Z,13.77
2023-02-14T14:56:51.094Z,13.76
2023-02-14T14:59:40.137Z,13.71
2023-02-14T15:02:28.179Z,13.63
2023-02-14T15:04:57.890Z,13.52
2023-02-14T15:07:32.914Z,13.52
2023-02-14T15:10:00.603Z,13.55
2023-02-14T15:12:46.946Z,13.56
2023-02-14T15:15:16.772Z,13.49
2023-02-14T15:17:44.071Z,13.40
2023-02-14T15:20:18.672Z,13.35
2023-02-14T15:22:50.572Z,13.26
2023-02-14T15:25:21.462Z,13.29
2023-02-14T15:27:51.966Z,13.36
2023-02-14T15:59:01.191Z,12.92
2023-02-14T16:08:54.700Z,12.71
2023-02-14T16:12:29.983Z,12.65
2023-02-14T16:15:19.761Z,12.61
2023-02-14T16:17:50.935Z,12.55
2023-02-14T16:20:53.499Z,12.54
2023-02-14T16:23:25.056Z,12.47
2023-02-14T16:25:53.273Z,12.35
2023-02-14T16:28:30.466Z,12.30
2023-02-14T16:31:16.096Z,12.24
2023-02-14T16:33:42.890Z,12.18
2023-02-14T16:36:32.222Z,12.15
2023-02-14T16:39:02.126Z,12.03
2023-02-14T16:41:30.280Z,11.91
2023-02-14T16:47:30.561Z,11.72
2023-02-14T16:56:26.825Z,11.45
2023-02-14T16:58:58.062Z,11.39
2023-02-14T17:01:27.441Z,11.33
2023-02-14T17:03:57.388Z,11.28
2023-02-14T17:09:25.398Z,11.14
2023-02-14T17:11:54.234Z,11.05
2023-02-14T17:14:30.227Z,10.96
2023-02-14T17:16:58.479Z,10.90
2023-02-14T17:19:25.699Z,10.78
2023-02-14T17:21:53.701Z,10.73
2023-02-14T17:24:20.284Z,10.69
2023-02-14T17:27:12.230Z,10.56
2023-02-14T17:29:52.123Z,10.42
2023-02-14T17:32:44.159Z,10.37
2023-02-14T17:35:11.952Z,10.34
2023-02-14T17:37:39.565Z,10.22
2023-02-14T17:40:10.516Z,10.13
2023-02-14T17:42:38.785Z,10.06
2023-02-14T17:45:11.647Z,9.99
2023-02-14T17:47:39.926Z,9.91
2023-02-14T17:50:07.397Z,9.82
2023-02-14T17:52:34.410Z,9.72
2023-02-14T17:55:00.961Z,9.67
2023-02-14T17:57:27.489Z,9.61
2023-02-14T17:59:54.028Z,9.56
2023-02-14T18:02:20.619Z,9.52
2023-02-14T18:04:48.243Z,9.49
2023-02-14T18:07:14.789Z,9.40
2023-02-14T18:09:41.315Z,9.35
2023-02-14T18:12:10.343Z,9.30
2023-02-14T18:14:41.431Z,9.24
2023-02-14T18:17:08.071Z,9.15
2023-02-14T18:19:37.781Z,9.12
2023-02-14T18:22:06.074Z,9.04
2023-02-14T18:24:32.681Z,8.96
2023-02-14T18:26:59.271Z,8.89
2023-02-14T18:29:25.770Z,8.83
2023-02-14T18:31:52.457Z,8.75
2023-02-14T18:34:19.081Z,8.68
2023-02-14T18:36:45.791Z,8.60
2023-02-14T18:39:23.969Z,8.55
2023-02-14T18:41:53.581Z,8.51
2023-02-14T18:44:45.191Z,8.46
2023-02-14T18:47:15.727Z,8.37
2023-02-14T18:49:55.208Z,8.29
2023-02-14T18:52:25.643Z,8.22
2023-02-14T18:55:36.844Z,8.17
2023-02-14T18:57:53.718Z,8.09
2023-02-14T19:00:23.028Z,8.02
2023-02-14T19:03:01.112Z,7.95
2023-02-14T19:05:36.093Z,7.90
2023-02-14T19:08:19.169Z,7.84
2023-02-14T19:10:46.126Z,7.78
2023-02-14T19:13:29.280Z,7.72
2023-02-14T19:15:56.680Z,7.71
2023-02-14T19:18:26.443Z,7.63
2023-02-14T19:20:53.089Z,7.54
2023-02-14T19:23:19.839Z,7.43
2023-02-14T19:25:46.346Z,7.36
2023-02-14T19:28:13.542Z,7.28
2023-02-14T19:30:40.055Z,7.26
2023-02-14T19:33:06.949Z,7.24
2023-02-14T19:35:36.748Z,7.21
2023-02-14T19:38:53.539Z,7.18
2023-02-14T19:46:02.482Z,6.99
2023-02-14T19:49:19.296Z,6.89
2023-02-14T19:51:53.168Z,6.82
2023-02-14T19:54:21.919Z,6.76
2023-02-14T19:57:28.251Z,6.53
2023-02-14T20:06:51.229Z,6.30
2023-02-14T20:09:18.836Z,6.27
2023-02-14T20:12:47.500Z,6.27
2023-02-14T20:15:35.261Z,6.21
2023-02-14T20:18:04.649Z,6.20
2023-02-14T20:21:18.225Z,6.16
2023-02-14T20:59:46.443Z,5.32
2023-02-14T21:06:15.087Z,5.19
2023-02-14T21:08:42.898Z,5.11
2023-02-14T21:12:15.405Z,5.10
2023-02-14T21:15:47.638Z,5.04
2023-02-14T21:18:44.455Z,4.94
2023-02-14T21:21:47.158Z,4.93
2023-02-14T21:25:16.825Z,4.84
2023-02-14T21:28:51.687Z,4.77
2023-02-14T21:31:57.427Z,4.74
2023-02-14T21:34:41.848Z,4.70
2023-02-14T21:37:22.255Z,4.68
2023-02-14T21:39:52.505Z,4.62
2023-02-14T21:42:27.110Z,4.60
2023-02-14T21:45:59.007Z,4.56
2023-02-14T21:52:51.556Z,4.44
2023-02-14T21:56:02.871Z,4.38
2023-02-14T22:01:47.979Z,4.24
2023-02-14T22:04:20.295Z,4.20
2023-02-14T22:07:39.480Z,4.18
2023-02-14T22:10:55.855Z,4.13
2023-02-14T22:13:24.688Z,4.10
2023-02-14T22:16:45.212Z,4.03
2023-02-14T22:19:45.682Z,4.00
2023-02-14T22:34:06.437Z,3.80
2023-02-14T22:36:45.159Z,3.76
2023-02-14T22:42:33.483Z,3.62
2023-02-14T22:45:14.422Z,3.59
2023-02-14T22:48:50.496Z,3.53
2023-02-14T23:00:32.931Z,3.37
2023-02-14T23:03:09.312Z,3.32
2023-02-14T23:05:40.036Z,3.28
2023-02-14T23:08:32.486Z,3.26
2023-02-14T23:11:25.655Z,3.22
2023-02-14T23:14:13.966Z,3.18
2023-02-14T23:17:07.165Z,3.00
2023-02-14T23:20:23.129Z,2.96
2023-02-14T23:22:50.412Z,2.92
2023-02-14T23:25:26.906Z,2.88
2023-02-14T23:27:53.679Z,2.86
2023-02-14T23:30:20.500Z,2.82
2023-02-14T23:32:47.617Z,2.81
2023-02-14T23:35:17.515Z,2.79
2023-02-14T23:37:56.003Z,2.77
2023-02-14T23:40:25.743Z,2.75
2023-02-14T23:42:54.566Z,2.66
2023-02-14T23:45:38.864Z,2.64
2023-02-14T23:48:24.008Z,2.61
2023-02-14T23:50:50.604Z,2.57
2023-02-14T23:53:17.657Z,2.57
2023-02-14T23:55:47.409Z,2.55
2023-02-14T23:58:14.628Z,2.52
